Peoria, IL (61601)

4:04 PM CDT on August 27, 2015 (GMT -0500)
Pekin Avenue | | Change Station
CLOSE
Current Station
Personal Weather Station
Location: East Peoria, IL
Elevation: 659 ft
Nearby Weather Stations

Elev 659 ft 40.66 °N, 89.58 °W | Updated 6 minutes ago

Clear
Clear
82.8 °F
Feels Like 83 °F
N
1.6
Wind Variable Wind from SSW

Today
High -- | Low -- °F
--% Chance of Precip.
Yesterday
High -- | Low -- °F
Precip. -- in
6:20 AM 7:38 PM
Waxing Gibbous, 95% visible
Pressure 30.12 in
Visibility 10.0 miles
Clouds Clear
Heat Index 83 °F
Dew Point 59 °F
Humidity 44%
Rainfall 0.00 in
Snow Depth Not available.
UV 5 out of 12
Pollen 9.90 out of 12
Air Quality Not available.
Flu Activity Not available.
METAR KPIA 272054Z VRB03KT 10SM CLR 24/13 A3013 RMK AO2 SLP200 T02440133 58019
Pressure 30.12 in
Visibility 10.0 miles
Clouds Clear
Heat Index 83 °F
Dew Point 59 °F
Humidity 44%
Rainfall 0.00 in
Snow Depth Not available.
UV 5 out of 12
Pollen 9.90 out of 12
Air Quality Not available.
Flu Activity Not available.
METAR KPIA 272054Z VRB03KT 10SM CLR 24/13 A3013 RMK AO2 SLP200 T02440133 58019

10-Day Weather Forecast

×

Almanac

Astronomy

Aug. 27, 2015 Rise Set
Actual Time
Civil Twilight
Nautical Twilight
Astronomical Twilight
Moon
Length of Visible Light
Length of Day
Tomorrow will be .
, % of the Moon is Illuminated

Today's Extremes

State Highs State Lows

Community

WunderPhotos

Upload Photos

1,850,217 photos uploaded!

WunderBlogs® & News

Nearby

Air Quality

  Air Quality AQ Index Pollutant
Not available.

Snow Depth

Station Depth Elevation

Earthquake Activity

City Distance Mag. Time & Date
Minimum magnitude displayed is 2.5.

Coastal Water Temperatures

Place Temperature

Stations

Nearby Weather Stations

Station Location Temp. Windchill Dew Point Humidity Wind Precip. Elev Updated Type